Details From KFNT - Bishop Intl
To KAZO - Kalamazoo Battle Creek Intl
Flight Number -
Tags Generated
Created
Modified
Stats Distance 91 nm / 169 km
Max Altitude 0 ft / 0 m
Waypoints 2
Social Downloads 1
Likes 0
Share VATSIM

Download

Looking for another format? Having issues loading an existing format? Contact us
Advertisement - Login to hide

Notes

Generated

Route

KFNT KAZO

ID Type Via Altitude Latitude Longitude Leg Dist Tot Dist Heading (true) Name
O KFNT APT - 0 ft / 0 m 42.96157˚ -83.74469˚ - 0 nm - -
O KAZO APT - 0 ft / 0 m 42.23389˚ -85.55814˚ 91 nm 91 nm 242° / 241° -

Altitude Profile

Advertisement - Login to hide

KFNT

Details ICAO KFNT (FNT)
Name Bishop Intl
Region United States
Timezone America/Detroit (UTC-4.0)
Stats Elevation 782 ft / 238 m (AMSL)
Location 42.965505° -83.742996°
Runways 3
Magnetic Variation 7.175° W

METAR

KFNT 271953Z 22007KT 10SM CLR 31/19 A2987 RMK AO2 SLP111 T03110189

Decode

TAF

TAF KFNT 271738Z 2718/2818 24008KT P6SM SCT050 SCT250 FM272000 25009KT P6SM VCTS SCT050CB SCT250 FM280600 VRB03KT P6SM SCT250

Decode

Departure Runways

ID Width Length Bearing (true) Bearing (mag) Surface Threshold Offset Overrun Length
05 150 ft / 46 m 3,921 ft / 1,195 m 46.43° 53.61° Asphalt 0 ft / 0 m 649 ft / 198 m
09 150 ft / 46 m 7,183 ft / 2,189 m 88.24° 95.42° Asphalt 0 ft / 0 m 0 ft / 0 m
18 150 ft / 46 m 7,858 ft / 2,395 m 179.13° 186.31° Asphalt 199 ft / 61 m 0 ft / 0 m
23 150 ft / 46 m 3,921 ft / 1,195 m 226.43° 233.61° Asphalt 0 ft / 0 m 0 ft / 0 m
27 150 ft / 46 m 7,183 ft / 2,189 m 268.25° 275.43° Asphalt 0 ft / 0 m 0 ft / 0 m
36 150 ft / 46 m 7,858 ft / 2,395 m 359.13° 6.31° Asphalt 0 ft / 0 m 0 ft / 0 m

KAZO

Details ICAO KAZO (AZO)
Name KALAMAZOO BATTLE CREEK INTL
Region United States
Timezone America/Detroit (UTC-4.0)
Stats Elevation 874 ft / 266 m (AMSL)
Location 42.235236° -85.552226°
Runways 3
Magnetic Variation 5.644° W

METAR

KAZO 271953Z 10SM CLR 34/16 A2989 RMK AO2 SLP116 T03390156

Decode

TAF

TAF KAZO 271744Z 2718/2818 29007KT P6SM SCT050 FM280200 VRB03KT P6SM SCT250

Decode

Destination Runways

ID Width Length Bearing (true) Bearing (mag) Surface Threshold Offset Overrun Length
05 98 ft / 30 m 3,435 ft / 1,047 m 44.85° 50.49° Asphalt 0 ft / 0 m 564 ft / 172 m
09 59 ft / 18 m 2,793 ft / 851 m 90.08° 95.72° Asphalt 0 ft / 0 m 0 ft / 0 m
17 151 ft / 46 m 6,509 ft / 1,984 m 171.13° 176.77° Asphalt 0 ft / 0 m 0 ft / 0 m
23 98 ft / 30 m 3,435 ft / 1,047 m 224.86° 230.50° Asphalt 0 ft / 0 m 0 ft / 0 m
27 59 ft / 18 m 2,793 ft / 851 m 270.09° 275.73° Asphalt 0 ft / 0 m 0 ft / 0 m
35 151 ft / 46 m 6,509 ft / 1,984 m 351.14° 356.78° Asphalt 0 ft / 0 m 0 ft / 0 m

Approach Navaids

Runway Type Ident Frequency Range Bearing (true) Bearing (mag) Slope Elevation
35 Localiser IAZO 110.90 MHz 18 nm / 33 km 351.15° 356.79° - 874 ft / 266 m (AMSL)
35 Glidescope IAZO 110.90 MHz 10 nm / 19 km 351.13° 356.78° 2.98° 866 ft / 264 m (AMSL)